Time;durP1;ratioP1;P1;durP2;ratioP2;P2;SDS_P1;SDS_P2;PMS_P1;PMS_P2;Temp;Humidity;BMP_temperature;BMP_pressure;BME280_temperature;BME280_humidity;BME280_pressure;Samples;Min_cycle;Max_cycle;Signal;HPM_P1;HPM_P2
2022/05/02 00:00:09;;;;;;;5.62;3.83;;;;;;;13.44;46.46;99891.72;7659200;32;37989;-70
2022/05/02 00:04:25;;;;;;;;;;;;;;;13.29;46.57;99884.44;7665498;32;37056;-71
2022/05/02 00:08:41;;;;;;;6.53;4.28;;;;;;;13.19;47.22;99886.44;7685699;32;39737;-72
2022/05/02 00:12:57;;;;;;;8.40;4.03;;;;;;;13.25;46.76;99888.06;7685057;32;39948;-71
2022/05/02 00:17:14;;;;;;;4.62;3.78;;;;;;;13.53;45.77;99879.03;7685174;32;38076;-71
2022/05/02 00:21:31;;;;;;;7.40;4.05;;;;;;;13.45;45.89;99885.16;7685346;32;37052;-71
2022/05/02 00:25:47;;;;;;;6.03;4.07;;;;;;;13.34;46.27;99880.88;7680854;32;39476;-70
2022/05/02 00:30:04;;;;;;;8.63;4.03;;;;;;;13.31;46.46;99884.16;7658769;32;40134;-71
2022/05/02 00:34:20;;;;;;;7.93;3.87;;;;;;;13.21;47.08;99889.72;7658402;32;38033;-70
2022/05/02 00:38:36;;;;;;;7.28;3.97;;;;;;;12.90;48.29;99879.00;7658347;32;37359;-70
2022/05/02 00:42:52;;;;;;;8.63;4.03;;;;;;;12.74;48.50;99887.31;7658684;32;39428;-70
2022/05/02 00:47:09;;;;;;;7.43;3.90;;;;;;;12.92;47.36;99882.31;7659312;32;39665;-71
2022/05/02 00:51:25;;;;;;;6.18;4.28;;;;;;;12.84;47.78;99877.44;7658528;32;37935;-70
2022/05/02 00:55:42;;;;;;;7.90;4.05;;;;;;;12.99;46.87;99874.56;7662209;32;37105;-70
2022/05/02 00:59:58;;;;;;;9.07;4.10;;;;;;;13.21;46.62;99884.25;7684894;32;39448;-71
2022/05/02 01:04:14;;;;;;;5.97;4.43;;;;;;;13.40;46.53;99873.41;7683816;32;40826;-71
2022/05/02 01:08:31;;;;;;;6.93;4.20;;;;;;;12.93;47.75;99872.97;7684810;32;39080;-71
2022/05/02 01:12:48;;;;;;;8.70;4.12;;;;;;;13.10;47.16;99872.56;7684718;32;37862;-71
2022/05/02 01:17:05;;;;;;;7.07;4.05;;;;;;;13.04;46.95;99874.53;7684576;32;39865;-70
2022/05/02 01:21:29;;;;;;;6.05;3.75;;;;;;;13.09;47.20;99870.91;7684592;32;40920;-71
2022/05/02 01:25:45;;;;;;;7.93;3.95;;;;;;;13.14;47.53;99868.97;7678740;32;37933;-70
2022/05/02 01:30:01;;;;;;;8.70;4.32;;;;;;;13.23;46.52;99866.44;7656918;32;37208;-71
2022/05/02 01:34:17;;;;;;;7.47;4.28;;;;;;;13.36;46.26;99859.50;7658131;32;37127;-71
2022/05/02 01:38:34;;;;;;;6.07;4.03;;;;;;;13.59;45.76;99851.59;7678687;32;39950;-70
2022/05/02 01:42:50;;;;;;;7.80;4.78;;;;;;;13.58;45.43;99859.00;7684252;32;39222;-71
2022/05/02 01:47:08;;;;;;;6.25;4.32;;;;;;;13.70;44.73;99864.09;7680481;32;36736;-71
2022/05/02 01:51:24;;;;;;;10.05;4.85;;;;;;;13.23;46.99;99871.91;7683782;32;39418;-71
2022/05/02 01:55:41;;;;;;;7.25;4.53;;;;;;;13.10;47.72;99862.44;7679044;32;40020;-70
2022/05/02 01:59:57;;;;;;;8.13;4.45;;;;;;;13.06;47.82;99860.56;7657379;32;37860;-71
2022/05/02 02:08:48;;;;;;;6.12;4.20;;;;;;;13.21;47.72;99862.34;7657363;32;40057;-70
2022/05/02 02:13:05;;;;;;;5.78;4.00;;;;;;;13.56;46.98;99857.69;7657114;32;40028;-71
2022/05/02 02:17:21;;;;;;;7.72;4.30;;;;;;;13.30;48.46;99866.09;7657655;32;38771;-70
2022/05/02 02:21:37;;;;;;;8.10;4.70;;;;;;;13.14;48.71;99863.50;7656977;32;37125;-71
2022/05/02 02:25:53;;;;;;;8.80;4.87;;;;;;;13.03;49.21;99859.22;7656464;32;39813;-70
2022/05/02 02:30:10;;;;;;;6.78;4.25;;;;;;;13.30;48.19;99861.44;7656764;32;40783;-71
2022/05/02 02:34:26;;;;;;;6.47;4.45;;;;;;;13.42;48.55;99854.78;7657028;32;37992;-71
2022/05/02 02:38:42;;;;;;;11.23;4.85;;;;;;;13.55;47.75;99858.78;7660125;32;37105;-71
2022/05/02 02:42:58;;;;;;;7.45;4.22;;;;;;;14.01;44.33;99850.03;7660081;32;39516;-71
2022/05/02 02:47:14;;;;;;;8.25;4.20;;;;;;;14.05;43.71;99859.28;7659951;32;40581;-71
2022/05/02 02:51:30;;;;;;;5.75;4.18;;;;;;;14.15;43.13;99856.41;7659899;32;37617;-71
2022/05/02 02:55:47;;;;;;;6.50;4.60;;;;;;;13.90;44.47;99852.91;7665512;32;36888;-71
2022/05/02 03:00:07;;;;;;;7.85;4.20;;;;;;;13.59;46.30;99857.06;7686205;32;40191;-71
2022/05/02 03:08:58;;;;;;;7.47;5.00;;;;;;;13.44;48.17;99861.63;7686110;32;37832;-71
2022/05/02 03:13:14;;;;;;;6.40;4.18;;;;;;;13.12;50.27;99862.97;7666080;32;37860;-70
2022/05/02 03:17:30;;;;;;;6.68;4.30;;;;;;;13.83;52.51;99857.09;7659605;32;40131;-71
2022/05/02 03:21:46;;;;;;;7.00;4.53;;;;;;;13.66;48.89;99863.00;7659548;32;40028;-71
2022/05/02 03:26:02;;;;;;;6.68;4.45;;;;;;;13.44;49.40;99863.53;7667077;32;37996;-71
2022/05/02 03:30:18;;;;;;;8.35;4.43;;;;;;;13.15;50.78;99870.59;7685820;32;37487;-71
2022/05/02 03:34:40;;;;;;;7.90;4.68;;;;;;;13.12;50.74;99865.72;7685586;32;39517;-71
2022/05/02 03:38:56;;;;;;;6.12;4.30;;;;;;;13.14;50.90;99870.87;7685673;32;41373;-70
2022/05/02 03:43:13;;;;;;;8.27;4.93;;;;;;;13.60;48.44;99862.25;7685586;32;38437;-70
2022/05/02 03:47:29;;;;;;;7.18;4.90;;;;;;;13.50;48.54;99859.62;7685040;32;37863;-71
2022/05/02 03:51:45;;;;;;;9.68;4.35;;;;;;;13.57;48.35;99864.78;7684216;32;40477;-72
2022/05/02 03:56:01;;;;;;;7.28;4.57;;;;;;;13.38;48.21;99868.22;7676071;32;40737;-72
2022/05/02 04:00:18;;;;;;;8.15;4.45;;;;;;;13.60;48.15;99864.19;7659056;32;37922;-71
2022/05/02 04:04:39;;;;;;;8.30;4.75;;;;;;;13.80;46.76;99866.72;7659050;32;37900;-71
2022/05/02 04:08:55;;;;;;;7.55;4.30;;;;;;;13.89;46.96;99867.69;7657719;32;40072;-71
2022/05/02 04:13:12;;;;;;;7.90;4.53;;;;;;;13.70;47.06;99875.03;7658978;32;40742;-71
2022/05/02 04:17:28;;;;;;;13.38;5.05;;;;;;;14.09;47.13;99865.84;7658770;32;37823;-71
2022/05/02 04:21:44;;;;;;;7.25;4.45;;;;;;;13.96;47.21;99867.34;7658831;32;37255;-71
2022/05/02 04:26:00;;;;;;;10.82;5.05;;;;;;;13.94;45.94;99860.53;7667008;32;40137;-71
2022/05/02 04:30:16;;;;;;;7.90;4.65;;;;;;;13.95;47.82;99864.91;7685120;32;40832;-71
2022/05/02 04:34:32;;;;;;;7.53;4.70;;;;;;;14.00;47.17;99867.56;7684888;32;38091;-71
2022/05/02 04:38:48;;;;;;;7.55;4.70;;;;;;;14.15;48.67;99861.09;7685105;32;37131;-70
2022/05/02 04:43:04;;;;;;;13.62;4.90;;;;;;;13.96;48.95;99861.06;7666166;32;40713;-71
2022/05/02 04:47:20;;;;;;;10.98;4.97;;;;;;;13.82;51.05;99867.22;7658625;32;39628;-71
2022/05/02 04:51:43;;;;;;;8.40;4.95;;;;;;;13.98;48.24;99872.53;7658536;32;37566;-70
2022/05/02 04:55:59;;;;;;;11.35;4.47;;;;;;;13.58;50.12;99875.44;7666968;32;37577;-70
2022/05/02 05:00:16;;;;;;;9.20;4.93;;;;;;;13.83;49.86;99868.88;7684896;32;39387;-71
2022/05/02 05:04:32;;;;;;;8.43;4.57;;;;;;;13.41;52.06;99875.88;7684746;32;40046;-71
2022/05/02 05:08:48;;;;;;;10.90;5.28;;;;;;;13.99;50.84;99872.25;7684764;32;37835;-71
2022/05/02 05:13:16;;;;;;;9.88;4.78;;;;;;;13.96;51.91;99872.81;7672073;32;36872;-71
2022/05/02 05:17:50;;;;;;;8.38;4.78;;;;;;;14.16;51.94;99879.16;7674645;32;39033;-70
2022/05/02 05:22:21;;;;;;;7.78;4.78;;;;;;;14.60;50.06;99878.87;7658109;32;39681;-71
2022/05/02 05:27:08;;;;;;;6.72;4.43;;;;;;;14.86;47.73;99885.91;7658086;32;37817;-71
2022/05/02 05:31:56;;;;;;;7.62;4.15;;;;;;;14.84;47.68;99875.22;7658112;32;37345;-71
2022/05/02 05:36:31;;;;;;;11.73;4.97;;;;;;;15.06;44.19;99871.06;7657806;32;39063;-71
2022/05/02 05:40:54;;;;;;;9.30;4.90;;;;;;;15.56;47.69;99863.03;7657895;32;40753;-71
2022/05/02 05:45:28;;;;;;;10.13;5.65;;;;;;;15.02;49.70;99870.81;7657839;32;37546;-72
2022/05/02 05:50:10;;;;;;;11.82;6.37;;;;;;;15.05;49.39;99863.94;7656591;32;37886;-71
2022/05/02 05:54:40;;;;;;;10.05;5.53;;;;;;;14.83;50.56;99871.69;7662351;32;39355;-71
2022/05/02 05:59:12;;;;;;;8.48;4.60;;;;;;;15.02;50.32;99871.66;7682683;32;40881;-71
2022/05/02 06:03:33;;;;;;;9.05;5.05;;;;;;;15.29;49.01;99870.09;7682754;32;38021;-71
2022/05/02 06:07:51;;;;;;;8.25;4.97;;;;;;;15.87;47.38;99870.75;7683741;32;36987;-71
2022/05/02 06:12:10;;;;;;;7.43;4.55;;;;;;;15.89;45.18;99877.53;7681785;32;40235;-78
2022/05/02 06:21:04;;;;;;;7.35;4.32;;;;;;;16.18;45.97;99870.94;7670834;32;38757;-67
2022/05/02 06:25:22;;;;;;;7.50;4.25;;;;;;;16.07;43.67;99873.06;7682619;32;37043;-77
2022/05/02 06:29:39;;;;;;;7.62;4.70;;;;;;;16.10;42.60;99877.13;7671822;32;39380;-69
2022/05/02 06:33:59;;;;;;;9.07;4.55;;;;;;;16.91;41.67;99878.41;7665446;32;39881;-75
2022/05/02 06:38:28;;;;;;;8.25;4.80;;;;;;;17.25;40.14;99867.62;7657340;32;36759;-68
2022/05/02 06:43:05;;;;;;;10.05;4.15;;;;;;;17.75;38.79;99863.84;7663566;32;37263;-70
2022/05/02 06:47:49;;;;;;;6.28;3.42;;;;;;;17.56;38.35;99868.78;7677024;32;40033;-69
2022/05/02 06:52:11;;;;;;;7.68;4.20;;;;;;;18.11;37.19;99851.84;7681717;32;40826;-69
2022/05/02 06:56:36;;;;;;;8.23;4.32;;;;;;;18.44;35.91;99851.41;7662104;32;38598;-68
2022/05/02 07:01:08;;;;;;;17.25;6.10;;;;;;;18.87;35.85;99849.81;7678675;32;36758;-69
2022/05/02 07:05:37;;;;;;;7.10;3.80;;;;;;;19.30;33.85;99849.75;7667113;32;39883;-70
2022/05/02 07:10:02;;;;;;;6.68;3.62;;;;;;;19.64;32.86;99847.19;7670882;32;40110;-70
2022/05/02 07:14:28;;;;;;;9.80;4.82;;;;;;;19.99;31.35;99844.28;7665989;32;37602;-69
2022/05/02 07:19:16;;;;;;;9.93;5.57;;;;;;;20.11;30.42;99844.41;7656696;32;37285;-69
2022/05/02 07:23:49;;;;;;;12.95;5.45;;;;;;;20.49;30.93;99854.59;7663033;32;39363;-70
2022/05/02 07:28:05;;;;;;;6.50;3.33;;;;;;;20.86;30.60;99857.56;7684675;32;40351;-69
2022/05/02 07:32:24;;;;;;;7.53;3.35;;;;;;;20.70;29.31;99848.28;7676825;32;37864;-69
2022/05/02 07:36:42;;;;;;;7.60;4.07;;;;;;;21.16;30.72;99838.03;7667053;32;37114;-70
2022/05/02 07:41:25;;;;;;;8.73;4.20;;;;;;;21.29;31.38;99845.25;7669462;32;39098;-70
2022/05/02 07:45:41;;;;;;;9.27;3.57;;;;;;;21.50;29.89;99844.41;7673703;32;39603;-69
2022/05/02 07:49:57;;;;;;;8.63;3.87;;;;;;;21.75;30.46;99834.16;7680670;32;37770;-70
2022/05/02 07:54:20;;;;;;;7.00;3.35;;;;;;;21.75;28.71;99834.94;7674298;32;37169;-69
2022/05/02 07:58:43;;;;;;;10.82;4.40;;;;;;;22.07;28.99;99839.91;7672966;32;39819;-70
2022/05/02 08:02:59;;;;;;;15.82;8.15;;;;;;;22.37;30.25;99832.16;7665349;32;39882;-70
2022/05/02 08:07:19;;;;;;;6.90;3.15;;;;;;;22.64;29.87;99832.53;7656887;32;38714;-70
2022/05/02 08:12:02;;;;;;;28.23;13.68;;;;;;;22.80;29.48;99830.66;7673752;32;37869;-69
2022/05/02 08:16:31;;;;;;;11.30;4.35;;;;;;;22.73;28.75;99824.84;7676374;32;38983;-69
2022/05/02 08:21:02;;;;;;;10.15;3.17;;;;;;;22.69;29.16;99830.31;7661234;32;40619;-69
2022/05/02 08:30:21;;;;;;;5.93;3.60;;;;;;;22.88;29.32;99829.66;7675833;32;37167;-70
2022/05/02 08:34:40;;;;;;;8.70;4.00;;;;;;;23.10;29.00;99827.53;7666926;32;40114;-71
2022/05/02 08:39:07;;;;;;;8.43;5.10;;;;;;;22.64;28.93;99838.09;7678443;32;39681;-71
2022/05/02 08:44:00;;;;;;;7.90;3.95;;;;;;;22.71;27.94;99829.16;7682972;32;38641;-72
2022/05/02 08:48:34;;;;;;;;;;;;;;;22.94;29.50;99821.91;7685098;32;35123;-72
2022/05/02 08:53:39;;;;;;;4.18;2.80;;;;;;;23.48;29.31;99825.34;7684792;32;39594;-71
2022/05/02 08:58:14;;;;;;;7.32;3.42;;;;;;;23.66;27.88;99818.22;7684883;32;40794;-71
2022/05/02 09:02:59;;;;;;;11.10;2.95;;;;;;;23.80;27.51;99815.81;7684853;32;38728;-72
2022/05/02 09:07:42;;;;;;;24.77;11.50;;;;;;;23.34;27.03;99815.44;7684909;32;37909;-72
2022/05/02 09:12:07;;;;;;;7.40;3.75;;;;;;;23.62;27.75;99807.00;7684663;32;39051;-71
2022/05/02 09:16:51;;;;;;;9.40;2.83;;;;;;;23.81;27.08;99805.50;7684624;32;40948;-72
2022/05/02 09:21:26;;;;;;;4.80;2.45;;;;;;;24.13;26.83;99811.03;7684433;32;38683;-73
2022/05/02 09:26:04;;;;;;;8.07;2.78;;;;;;;23.02;27.07;99801.47;7683487;32;37005;-72
2022/05/02 09:30:45;;;;;;;5.03;2.70;;;;;;;23.12;27.34;99802.94;7684486;32;39892;-72
2022/05/02 09:35:11;;;;;;;4.20;2.72;;;;;;;23.05;27.68;99792.44;7684145;32;39866;-72
2022/05/02 09:39:47;;;;;;;4.25;2.83;;;;;;;23.49;27.75;99791.59;7684028;32;38638;-72
2022/05/02 09:49:34;;;;;;;2.75;2.03;;;;;;;23.56;26.41;99793.72;7683230;32;39024;-72
2022/05/02 09:54:08;;;;;;;6.15;2.45;;;;;;;24.13;24.83;99783.19;7682837;32;40137;-72
2022/05/02 09:58:42;;;;;;;5.45;2.20;;;;;;;23.94;22.63;99793.13;7683907;32;38508;-73
2022/05/02 10:03:29;;;;;;;3.72;2.22;;;;;;;23.71;23.47;99789.34;7682840;32;36782;-72
2022/05/02 10:07:57;;;;;;;5.55;2.03;;;;;;;24.06;23.73;99785.78;7680170;32;39323;-72
2022/05/02 10:12:53;;;;;;;5.68;2.12;;;;;;;23.78;23.35;99772.81;7682396;32;40840;-72
2022/05/02 10:17:16;;;;;;;3.65;2.25;;;;;;;24.30;22.81;99771.63;7667060;32;38704;-82
2022/05/02 10:22:03;;;;;;;9.70;2.70;;;;;;;24.54;22.48;99758.59;7671783;32;36804;-81
2022/05/02 10:26:19;;;;;;;6.20;2.50;;;;;;;24.68;22.69;99752.50;7660069;32;39482;-71
2022/05/02 10:31:13;;;;;;;4.95;2.20;;;;;;;24.72;23.43;99743.03;7657160;32;40084;-71
2022/05/02 10:35:29;;;;;;;7.12;2.42;;;;;;;25.17;22.80;99739.88;7655583;32;37897;-72
2022/05/02 10:39:50;;;;;;;4.05;2.15;;;;;;;24.68;22.15;99731.03;7657156;32;37008;-71
2022/05/02 10:44:09;;;;;;;3.37;2.00;;;;;;;25.00;23.24;99730.81;7655599;32;40326;-72
2022/05/02 10:48:37;;;;;;;3.87;2.05;;;;;;;24.92;22.85;99731.84;7656502;32;40621;-72
2022/05/02 10:53:11;;;;;;;7.00;2.30;;;;;;;25.27;22.86;99722.56;7655073;32;37885;-73
2022/05/02 10:57:45;;;;;;;3.62;2.30;;;;;;;25.25;22.13;99722.06;7658652;32;38002;-71
2022/05/02 11:02:34;;;;;;;8.80;2.65;;;;;;;25.09;20.06;99720.25;7659990;32;41018;-72
2022/05/02 11:06:54;;;;;;;3.40;1.95;;;;;;;25.63;19.33;99706.34;7669563;32;40029;-72
2022/05/02 11:11:16;;;;;;;3.47;1.77;;;;;;;26.29;21.01;99708.91;7685658;32;37920;-72
2022/05/02 11:16:00;;;;;;;3.70;2.00;;;;;;;26.39;16.81;99708.22;7676113;32;38221;-73
2022/05/02 11:20:46;;;;;;;6.10;2.00;;;;;;;27.59;17.04;99697.78;7673276;32;39204;-73
2022/05/02 11:25:17;;;;;;;4.78;1.80;;;;;;;27.81;16.78;99701.53;7679644;32;40907;-73
2022/05/02 11:29:51;;;;;;;3.80;1.92;;;;;;;27.46;15.43;99702.91;7676000;32;37901;-80
2022/05/02 11:34:41;;;;;;;2.95;1.85;;;;;;;27.35;16.22;99697.22;7665660;32;37052;-73
2022/05/02 11:39:08;;;;;;;3.17;2.00;;;;;;;27.87;17.12;99696.34;7672497;32;39516;-72
2022/05/02 11:43:29;;;;;;;6.30;3.40;;;;;;;28.35;16.52;99693.38;7672370;32;40736;-73
2022/05/02 11:48:00;;;;;;;10.32;2.47;;;;;;;28.09;16.56;99689.69;7680798;32;38504;-74
2022/05/02 11:52:28;;;;;;;3.72;2.00;;;;;;;28.58;16.18;99692.28;7671267;32;37081;-73
2022/05/02 11:56:55;;;;;;;5.72;1.83;;;;;;;28.28;18.54;99680.16;7684265;32;40079;-73
2022/05/02 12:01:14;;;;;;;3.10;1.98;;;;;;;28.21;17.28;99685.72;7674400;32;39943;-74
2022/05/02 12:05:35;;;;;;;3.10;2.10;;;;;;;27.09;17.27;99683.38;7672077;32;37969;-73
2022/05/02 12:10:08;;;;;;;4.00;2.17;;;;;;;26.95;18.45;99672.87;7671611;32;36976;-73
2022/05/02 12:14:25;;;;;;;5.22;2.22;;;;;;;26.41;18.34;99683.47;7660169;32;39447;-73
2022/05/02 12:19:00;;;;;;;2.90;1.90;;;;;;;25.67;20.85;99679.31;7681989;32;40119;-72
2022/05/02 12:23:18;;;;;;;3.45;2.17;;;;;;;24.57;20.26;99679.84;7679301;32;39556;-72
2022/05/02 12:27:35;;;;;;;3.62;1.92;;;;;;;25.10;20.47;99662.47;7681961;32;36515;-81
2022/05/02 12:32:01;;;;;;;3.83;2.10;;;;;;;25.66;20.05;99655.34;7683386;32;39365;-73
2022/05/02 12:36:24;;;;;;;5.68;2.10;;;;;;;25.96;19.46;99657.41;7671149;32;39959;-73
2022/05/02 12:40:42;;;;;;;7.20;2.05;;;;;;;26.11;18.72;99650.78;7664766;32;39206;-73
2022/05/02 12:45:08;;;;;;;7.90;2.25;;;;;;;26.66;17.23;99644.63;7666387;32;36067;-74
2022/05/02 12:49:32;;;;;;;4.87;2.03;;;;;;;27.48;17.52;99630.53;7676340;32;39375;-74
2022/05/02 13:03:30;;;;;;;4.55;1.80;;;;;;;27.83;16.43;99622.72;7680883;32;36789;-73
2022/05/02 13:07:51;;;;;;;2.35;1.87;;;;;;;27.54;17.10;99617.78;7677431;32;40174;-73
2022/05/02 13:12:10;;;;;;;4.95;2.12;;;;;;;27.46;16.36;99618.13;7658286;32;39871;-72
2022/05/02 13:16:28;;;;;;;4.47;1.77;;;;;;;27.41;16.37;99612.91;7677581;32;37732;-73
2022/05/02 13:21:02;;;;;;;2.08;1.42;;;;;;;27.53;17.09;99606.97;7681478;32;38047;-73
2022/05/02 13:25:18;;;;;;;4.10;2.08;;;;;;;26.78;17.43;99621.19;7681897;32;39450;-74
2022/05/02 13:29:57;;;;;;;6.10;2.03;;;;;;;26.81;15.75;99606.44;7682686;32;39659;-74
2022/05/02 13:34:29;;;;;;;7.72;3.05;;;;;;;26.94;16.97;99610.53;7682232;32;38702;-73
2022/05/02 13:39:03;;;;;;;11.80;2.53;;;;;;;27.46;17.81;99602.13;7676016;32;36614;-73
2022/05/02 13:43:36;;;;;;;4.03;2.00;;;;;;;27.74;17.71;99586.66;7671920;32;40132;-73
2022/05/02 13:47:59;;;;;;;;;;;;;;;27.71;16.94;99593.84;7670985;32;40906;-73
2022/05/02 13:52:42;;;;;;;2.05;1.70;;;;;;;28.21;15.70;99593.25;7669062;32;37534;-73
2022/05/02 13:57:38;;;;;;;3.28;1.73;;;;;;;28.90;14.75;99585.75;7656916;32;38308;-72
2022/05/02 14:02:16;;;;;;;2.90;1.60;;;;;;;28.54;14.13;99580.09;7671733;32;39810;-72
2022/05/02 14:06:53;;;;;;;2.65;1.73;;;;;;;28.97;15.01;99568.09;7669474;32;40696;-74
2022/05/02 14:11:17;;;;;;;3.22;1.85;;;;;;;27.37;14.85;99575.66;7668778;32;37932;-74
2022/05/02 14:15:33;;;;;;;3.62;2.42;;;;;;;27.03;18.30;99573.03;7668608;32;36824;-75
2022/05/02 14:19:49;;;;;;;4.85;2.15;;;;;;;26.78;17.86;99570.84;7658410;32;39365;-73
2022/05/02 14:24:06;;;;;;;3.78;2.10;;;;;;;26.95;16.95;99574.97;7657120;32;40195;-73
2022/05/02 14:28:23;;;;;;;5.95;2.03;;;;;;;27.04;17.34;99575.44;7656324;32;37581;-73
2022/05/02 14:32:40;;;;;;;3.58;1.80;;;;;;;27.84;15.70;99571.12;7659161;32;36967;-74
2022/05/02 14:36:56;;;;;;;3.12;2.03;;;;;;;27.51;17.62;99573.75;7672729;32;39292;-74
2022/05/02 14:41:13;;;;;;;4.53;2.70;;;;;;;27.34;19.67;99571.69;7712483;32;39663;-73
2022/05/02 14:45:30;;;;;;;3.25;2.10;;;;;;;27.04;20.02;99580.22;7711157;32;38618;-73
2022/05/02 14:49:47;;;;;;;2.65;1.77;;;;;;;26.91;19.75;99572.16;7711052;32;37098;-73
2022/05/02 14:54:05;;;;;;;6.28;2.03;;;;;;;26.14;19.68;99580.19;7712850;32;39101;-73
2022/05/02 14:58:26;;;;;;;5.45;2.20;;;;;;;25.64;20.27;99588.75;7700187;32;38973;-73
2022/05/02 15:02:43;;;;;;;3.50;2.10;;;;;;;25.52;21.08;99594.56;7677752;32;38058;-73
2022/05/02 15:07:00;;;;;;;2.50;1.60;;;;;;;25.19;21.26;99578.53;7667513;32;37234;-72
2022/05/02 15:11:20;;;;;;;4.87;2.08;;;;;;;24.37;21.95;99585.12;7677032;32;39429;-72
2022/05/02 15:15:55;;;;;;;3.08;1.90;;;;;;;24.15;23.05;99588.69;7684582;32;40165;-72
2022/05/02 15:20:32;;;;;;;3.28;2.00;;;;;;;24.16;22.56;99587.50;7670709;32;38270;-72
2022/05/02 15:25:16;;;;;;;3.22;1.90;;;;;;;23.77;22.40;99593.09;7658310;32;37805;-72
2022/05/02 15:39:01;;;;;;;6.20;2.17;;;;;;;23.72;22.94;99587.81;7679490;32;38744;-72
2022/05/02 15:43:19;;;;;;;5.90;2.08;;;;;;;23.39;24.89;99597.44;7676693;32;37144;-72
2022/05/02 15:47:38;;;;;;;6.47;2.17;;;;;;;23.34;24.91;99590.16;7683296;32;38286;-73
2022/05/02 15:52:11;;;;;;;4.03;2.00;;;;;;;23.11;24.73;99584.50;7684932;32;41542;-72
2022/05/02 15:56:28;;;;;;;3.22;1.95;;;;;;;22.90;25.72;99583.94;7683620;32;37938;-73
2022/05/02 16:01:12;;;;;;;2.95;2.17;;;;;;;22.74;27.03;99587.53;7679608;32;37899;-72
2022/05/02 16:05:28;;;;;;;24.60;3.00;;;;;;;22.90;26.54;99583.94;7675783;32;38976;-73
2022/05/02 16:14:42;;;;;;;9.45;2.80;;;;;;;22.83;27.43;99579.78;7683801;32;37668;-72
2022/05/02 16:18:59;;;;;;;4.78;2.30;;;;;;;22.53;28.31;99581.44;7684602;32;37891;-72
2022/05/02 16:23:15;;;;;;;4.25;1.87;;;;;;;22.44;29.22;99584.38;7684940;32;39444;-72
2022/05/02 16:27:32;;;;;;;6.37;2.00;;;;;;;22.30;30.47;99580.06;7675291;32;39917;-72
2022/05/02 16:31:48;;;;;;;2.85;1.87;;;;;;;22.21;30.80;99571.03;7656030;32;37908;-72
2022/05/02 16:36:04;;;;;;;5.07;2.20;;;;;;;22.04;30.87;99571.38;7655499;32;36825;-72
2022/05/02 16:40:27;;;;;;;2.17;1.87;;;;;;;21.99;31.39;99569.69;7656662;32;39053;-72
2022/05/02 16:44:44;;;;;;;2.72;2.08;;;;;;;22.13;30.57;99575.59;7656863;32;39567;-72
2022/05/02 16:49:07;;;;;;;6.72;2.62;;;;;;;21.68;32.52;99581.44;7652620;32;149870;-72
2022/05/02 16:53:23;;;;;;;4.33;2.87;;;;;;;21.63;33.55;99574.19;7665880;32;37345;-72
2022/05/02 16:57:41;;;;;;;8.18;3.28;;;;;;;21.58;33.42;99577.22;7674409;32;39336;-73
2022/05/02 17:02:00;;;;;;;4.62;2.65;;;;;;;21.45;32.99;99575.59;7669963;32;40018;-72
2022/05/02 17:06:19;;;;;;;7.12;4.03;;;;;;;21.32;33.77;99585.91;7656351;32;38007;-72
2022/05/02 17:10:35;;;;;;;8.73;4.22;;;;;;;21.09;32.76;99591.13;7656964;32;36885;-73
2022/05/02 17:14:51;;;;;;;4.62;2.78;;;;;;;21.05;33.06;99579.94;7675588;32;39379;-72
2022/05/02 17:19:21;;;;;;;6.80;3.33;;;;;;;21.05;33.10;99579.13;7666536;32;39978;-72
2022/05/02 17:23:40;;;;;;;6.78;3.30;;;;;;;20.77;34.74;99582.59;7674378;32;37950;-72
2022/05/02 17:28:01;;;;;;;5.75;2.95;;;;;;;20.69;35.47;99580.72;7682810;32;37868;-72
2022/05/02 17:32:20;;;;;;;10.55;3.33;;;;;;;20.44;36.64;99586.22;7683053;32;39272;-72
2022/05/02 17:36:49;;;;;;;6.72;2.83;;;;;;;20.29;37.03;99595.19;7683518;32;39888;-72
2022/05/02 17:41:14;;;;;;;5.28;2.72;;;;;;;20.22;36.94;99604.84;7683640;32;37662;-69
2022/05/02 17:45:38;;;;;;;3.95;2.35;;;;;;;20.20;36.37;99598.84;7658960;32;37072;-72
2022/05/02 17:49:57;;;;;;;5.28;2.30;;;;;;;20.33;35.62;99601.62;7658030;32;40061;-72
2022/05/02 17:54:14;;;;;;;4.22;2.40;;;;;;;20.17;35.27;99607.00;7656630;32;40196;-72
2022/05/02 17:58:32;;;;;;;4.82;2.78;;;;;;;19.79;36.48;99622.63;7656386;32;38748;-72
2022/05/02 18:02:48;;;;;;;6.10;3.22;;;;;;;19.64;36.69;99621.25;7675504;32;37898;-72
2022/05/02 18:07:16;;;;;;;4.80;2.90;;;;;;;19.89;34.86;99619.47;7665501;32;40446;-72
2022/05/02 18:16:45;;;;;;;8.43;3.47;;;;;;;19.43;36.77;99624.00;7660621;32;38639;-72
2022/05/02 18:21:02;;;;;;;10.93;3.35;;;;;;;19.55;37.35;99626.03;7667167;32;37637;-71
2022/05/02 18:25:19;;;;;;;7.57;3.25;;;;;;;19.34;37.93;99620.50;7665670;32;39311;-70
2022/05/02 18:29:41;;;;;;;8.10;3.78;;;;;;;19.60;37.34;99625.03;7682360;32;39852;-70
2022/05/02 18:33:59;;;;;;;7.17;3.10;;;;;;;18.50;39.67;99645.03;7680701;32;37902;-70
2022/05/02 18:38:18;;;;;;;9.85;3.80;;;;;;;18.39;40.38;99645.38;7658734;32;37099;-71
2022/05/02 18:42:38;;;;;;;7.60;3.37;;;;;;;18.48;40.00;99650.06;7679409;32;39394;-72
2022/05/02 18:56:25;;;;;;;5.65;2.85;;;;;;;18.04;39.38;99654.81;7634031;32;36974;-72
2022/05/02 19:00:42;;;;;;;7.30;3.35;;;;;;;18.02;39.34;99669.75;7666996;32;39436;-72
2022/05/02 19:04:58;;;;;;;5.75;2.78;;;;;;;18.02;39.72;99653.22;7665735;32;39977;-72
2022/05/02 19:09:16;;;;;;;4.55;2.85;;;;;;;17.63;40.68;99662.41;7664758;32;38677;-72
2022/05/02 19:13:37;;;;;;;3.42;2.72;;;;;;;17.96;39.50;99660.03;7667571;32;36074;-72
2022/05/02 19:17:56;;;;;;;4.53;2.60;;;;;;;18.01;38.26;99656.28;7669515;32;41043;-72
2022/05/02 19:22:41;;;;;;;4.90;2.75;;;;;;;17.56;39.56;99668.38;7670239;32;40908;-70
2022/05/02 19:27:01;;;;;;;5.53;2.80;;;;;;;17.63;39.64;99674.22;7666755;32;37990;-71
2022/05/02 19:31:24;;;;;;;6.90;3.75;;;;;;;17.68;39.81;99669.69;7671170;32;37108;-71
2022/05/02 19:40:24;;;;;;;7.55;3.70;;;;;;;17.55;39.95;99671.47;7669926;32;40471;-72
2022/05/02 19:44:42;;;;;;;6.57;3.33;;;;;;;17.05;40.90;99670.66;7670727;32;37975;-72
2022/05/02 19:49:00;;;;;;;7.70;3.92;;;;;;;17.12;41.54;99670.19;7668767;32;37530;-71
2022/05/02 19:53:19;;;;;;;7.57;3.28;;;;;;;17.34;41.55;99679.53;7670142;32;39076;-71
2022/05/02 19:57:40;;;;;;;5.30;3.53;;;;;;;17.34;41.95;99665.75;7657865;32;39919;-71
2022/05/02 20:01:56;;;;;;;16.62;4.10;;;;;;;17.25;42.11;99677.53;7656948;32;37882;-72
2022/05/02 20:06:13;;;;;;;7.47;3.62;;;;;;;16.63;44.65;99683.06;7658280;32;37711;-70
2022/05/02 20:10:29;;;;;;;7.15;3.28;;;;;;;16.66;44.40;99679.66;7658501;32;39424;-72
2022/05/02 20:14:45;;;;;;;5.43;3.10;;;;;;;16.82;42.83;99680.91;7657624;32;40848;-72
2022/05/02 20:19:01;;;;;;;5.78;3.05;;;;;;;16.79;43.05;99689.78;7667798;32;38025;-71
2022/05/02 20:23:18;;;;;;;6.75;3.47;;;;;;;16.49;44.07;99689.47;7672134;32;37153;-71
2022/05/02 20:27:38;;;;;;;5.65;3.45;;;;;;;16.38;43.24;99690.81;7660582;32;39456;-72
2022/05/02 20:36:39;;;;;;;6.70;3.05;;;;;;;16.47;43.08;99686.22;7682146;32;37963;-71
2022/05/02 20:41:01;;;;;;;6.32;3.47;;;;;;;16.52;43.20;99686.09;7669563;32;37943;-71
2022/05/02 20:45:23;;;;;;;5.80;3.15;;;;;;;16.42;42.88;99686.34;7670577;32;38744;-72
2022/05/02 20:49:47;;;;;;;5.62;3.30;;;;;;;16.28;43.54;99688.31;7669098;32;39798;-72
2022/05/02 20:54:04;;;;;;;6.68;3.62;;;;;;;16.71;42.18;99676.78;7662777;32;37002;-71
2022/05/02 20:58:21;;;;;;;5.47;3.67;;;;;;;16.31;43.23;99691.25;7656026;32;37763;-72
2022/05/02 21:02:38;;;;;;;5.10;3.20;;;;;;;16.18;42.82;99683.06;7655698;32;39999;-72
2022/05/02 21:06:55;;;;;;;6.90;3.50;;;;;;;16.36;42.38;99682.06;7667989;32;40053;-72
2022/05/02 21:11:36;;;;;;;6.47;3.53;;;;;;;16.30;42.43;99688.84;7658720;32;35895;-73
2022/05/02 21:15:59;;;;;;;10.07;4.22;;;;;;;15.95;43.88;99688.56;7670964;32;37424;-72
2022/05/02 21:20:21;;;;;;;4.78;3.40;;;;;;;15.84;43.87;99685.22;7673534;32;39143;-72
2022/05/02 21:25:09;;;;;;;9.40;3.85;;;;;;;16.02;43.25;99686.19;7657876;32;39647;-72
2022/05/02 21:29:40;;;;;;;6.55;3.55;;;;;;;16.08;43.07;99679.44;7654271;32;38079;-72
2022/05/02 21:34:11;;;;;;;8.98;3.97;;;;;;;15.79;43.99;99688.09;7656384;32;37115;-71
2022/05/02 21:38:29;;;;;;;5.10;3.10;;;;;;;15.29;45.55;99694.31;7669680;32;39316;-72
2022/05/02 21:42:56;;;;;;;6.65;3.37;;;;;;;15.81;44.19;99682.28;7666974;32;40522;-71
2022/05/02 21:47:12;;;;;;;9.45;3.75;;;;;;;15.38;45.28;99687.00;7669998;32;39528;-71
2022/05/02 21:51:30;;;;;;;5.32;3.40;;;;;;;15.51;44.73;99685.38;7668523;32;37163;-72